Soleil Weather Down

Nearby METAR Reports

 

KCNI - Canton/Cherokee, Georgia, USA
Distance from station: ENE 6mi, 10km
Updated: Sun, 28-Feb-2021 1:15pm EST
Overcast
Overcast
 Wind from SW
Wind: SW 14 mph , 22 km/h, Gust: 20 mph , 31 km/h
Temperature: 72°F , 22°C
Dew Point: 59°F , 15°C
Humidity: 65%
Barometer: 30.11 inHg , 1019.6 hPa
Clouds: Overcast
Visibility: 10 miles , 16 km
Cloud details: Mostly cloudy 2700 ft
Overcast 3800 ft
2021/02/28 18:15 KCNI 281815Z AUTO 22012G17KT 10SM BKN027 OVC038 22/15 A3011 RMK AO2
KRYY - Marietta Mccolum, Georgia, USA
Distance from station: SSW 18mi, 29km
Updated: Sun, 28-Feb-2021 12:50pm EST
Mostly cloudy
Mostly cloudy
 Wind from SW
Wind: SW 12 mph , 19 km/h, Gust: 18 mph , 30 km/h
Temperature: 73°F , 23°C
Dew Point: 61°F , 16°C
Humidity: 65%
Barometer: 30.12 inHg , 1020 hPa
Clouds: Mostly cloudy
Visibility: 10 miles , 16 km
Cloud details: Mostly cloudy 3000 ft
2021/02/28 17:50 KRYY 281750Z 23010G16KT 10SM BKN030 23/16 A3012 RMK AO2 SLP919 T02330156 10233 20133 56012 $
KVPC - Cartersville, Georgia, USA
Distance from station: WSW 22mi, 35km
Updated: Sun, 28-Feb-2021 12:53pm EST
Mostly cloudy
Mostly cloudy
 Wind from S
Wind: S 9 mph , 15 km/h, Gust: 21 mph , 33 km/h
Temperature: 77°F , 25°C
Dew Point: 61°F , 16°C
Humidity: 57%
Barometer: 30.09 inHg , 1019 hPa
Clouds: Mostly cloudy
Visibility: 10 miles , 16 km
Cloud details: Mostly cloudy 3600 ft
2021/02/28 17:53 KVPC 281753Z AUTO 18008G18KT 10SM BKN036 25/16 A3009 RMK AO2 SLP180 T02500156 10250 20144 58019
 
KMGE - Dobbins Afb/Mari, Georgia, USA
Distance from station: S 24mi, 39km
Updated: Sun, 28-Feb-2021 12:17pm EST
NOT Current
Mostly cloudy
Mostly cloudy
 Wind from SSW
Wind: SSW 12 mph , 19 km/h, Gust: 21 mph , 33 km/h
Temperature: 72°F , 22°C
Dew Point: 61°F , 16°C
Humidity: 69%
Barometer: 30.12 inHg , 1020 hPa
Clouds: Mostly cloudy
Visibility: 10 miles , 16 km
Cloud details: Partly cloudy 2500 ft
Mostly cloudy 25000 ft
2021/02/28 17:17 KMGE 281717Z 21010G18KT 10SM SCT025 BKN250 22/16 A3012 RMK AO2A $
KPDK - Peachtree/Dekalb, Georgia, USA
Distance from station: SSE 29mi, 47km
Updated: Sun, 28-Feb-2021 12:53pm EST
Partly cloudy
Partly cloudy
 Wind from SSW
Wind: SSW 13 mph , 20 km/h, Gust: 26 mph , 43 km/h
Temperature: 73°F , 23°C
Dew Point: 61°F , 16°C
Humidity: 65%
Barometer: 30.12 inHg , 1020 hPa
Clouds: Partly cloudy
Visibility: 10 miles , 16 km
Cloud details: Partly cloudy 3300 ft
2021/02/28 17:53 KPDK 281753Z 20011G23KT 10SM SCT033 23/16 A3012 RMK AO2 SLP191 T02330156 10233 20122 58018
KFTY - Atlanta/Fulton, Georgia, USA
Distance from station: S 34mi, 54km
Updated: Sun, 28-Feb-2021 12:53pm EST
Partly cloudy
Partly cloudy
 Wind from S
Wind: S 12 mph , 19 km/h, Gust: 21 mph , 33 km/h
Temperature: 75°F , 24°C
Dew Point: 57°F , 14°C
Humidity: 54%
Barometer: 30.11 inHg , 1019.6 hPa
Clouds: Partly cloudy
Visibility: 10 miles , 16 km
Cloud details: Partly cloudy 3700 ft
2021/02/28 17:53 KFTY 281753Z 19010G18KT 10SM SCT037 24/14 A3011 RMK AO2 SLP190 T02390144 10244 20117 58019
 
KPUJ - Atlanta/Paulding, Georgia, USA
Distance from station: SW 34mi, 55km
Updated: Sun, 28-Feb-2021 1:15pm EST
Overcast
Overcast
 Wind from S
Wind: S 7 mph , 11 km/h, Gust: 17 mph , 28 km/h
Temperature: 72°F , 22°C
Dew Point: 59°F , 15°C
Humidity: 65%
Barometer: 30.09 inHg , 1019 hPa
Clouds: Overcast
Visibility: 10 miles , 16 km
Cloud details: Mostly cloudy 3100 ft
Mostly cloudy 3900 ft
Overcast 5000 ft
2021/02/28 18:15 KPUJ 281815Z AUTO 19006G15KT 10SM BKN031 BKN039 OVC050 22/15 A3009 RMK AO2
KDNN - Dalton, Georgia, USA
Distance from station: NW 37mi, 59km
Updated: Sun, 28-Feb-2021 1:15pm EST
Light rain, Overcast
Light rain, Overcast
 Wind from SSE
Wind: SSE 5 mph , 7 km/h
Temperature: 72°F , 22°C
Dew Point: 61°F , 16°C
Humidity: 69%
Barometer: 30.08 inHg , 1018.6 hPa
Summary: Light rain
Clouds: Overcast
Visibility: 10 miles , 16 km
Cloud details: Partly cloudy 2100 ft
Mostly cloudy 2700 ft
Overcast 3700 ft
2021/02/28 18:15 KDNN 281815Z AUTO 16004KT 10SM -RA SCT021 BKN027 OVC037 22/16 A3008 RMK AO2
KLZU - Lawrenceville, Georgia, USA
Distance from station: ESE 37mi, 59km
Updated: Sun, 28-Feb-2021 12:56pm EST
Mostly cloudy
Mostly cloudy
 Wind from SW
Wind: SW 17 mph , 28 km/h, Gust: 24 mph , 39 km/h
Temperature: 73°F , 23°C
Dew Point: 61°F , 16°C
Humidity: 65%
Barometer: 30.12 inHg , 1020 hPa
Clouds: Mostly cloudy
Visibility: 10 miles , 16 km
Cloud details: Mostly cloudy 2200 ft
2021/02/28 17:56 KLZU 281756Z 23015G21KT 10SM BKN022 23/16 A3012 RMK AO2 SLP205 60000 T02330156 10233 20111 58018
 
KRMG - Rome, Georgia, USA
Distance from station: W 38mi, 61km
Updated: Sun, 28-Feb-2021 12:53pm EST
Partly cloudy
Partly cloudy
 Wind from S
Wind: S 10 mph , 17 km/h, Gust: 20 mph , 31 km/h
Temperature: 75°F , 24°C
Dew Point: 63°F , 17°C
Humidity: 65%
Barometer: 30.05 inHg , 1017.6 hPa
Clouds: Partly cloudy
Visibility: 10 miles , 16 km
Cloud details: Few Clouds 3300 ft
Few Clouds 4200 ft
Partly cloudy 9000 ft
2021/02/28 17:53 KRMG 281753Z AUTO 19009G17KT 10SM FEW033 FEW042 SCT090 24/17 A3005 RMK AO2 SLP166 T02440167 10244 20156 58020
KGVL - Gainesville, Georgia, USA
Distance from station: E 39mi, 62km
Updated: Sun, 28-Feb-2021 12:53pm EST
Partly cloudy
Partly cloudy
 Wind from SW
Wind: SW 13 mph , 20 km/h, Gust: 23 mph , 37 km/h
Temperature: 72°F , 22°C
Dew Point: 57°F , 14°C
Humidity: 61%
Barometer: 30.14 inHg , 1020.7 hPa
Clouds: Partly cloudy
Visibility: 10 miles , 16 km
Cloud details: Partly cloudy 2400 ft
2021/02/28 17:53 KGVL 281753Z AUTO 23011G20KT 10SM SCT024 22/14 A3014 RMK AO2 SLP195 T02220144 10222 20117 56016
KATL - Atlanta, Georgia, USA
Distance from station: S 44mi, 71km
Updated: Sun, 28-Feb-2021 12:52pm EST
Mostly cloudy
Mostly cloudy
 Wind from SSW
Wind: SSW 17 mph , 28 km/h, Gust: 24 mph , 39 km/h
Temperature: 75°F , 24°C
Dew Point: 57°F , 14°C
Humidity: 54%
Barometer: 30.13 inHg , 1020.3 hPa
Clouds: Mostly cloudy
Visibility: 10 miles , 16 km
Cloud details: Mostly cloudy 3600 ft
Mostly cloudy 25000 ft
2021/02/28 17:52 KATL 281752Z 21015G21KT 10SM BKN036 BKN250 24/14 A3013 RMK AO2 PK WND 20028/1733 SLP196 T02390144 10239 20133 58017